TBO weather

Tabora Airport
Tabora, Tabora Region, Tanzania

Public forecast

Using degrees Celsius for public forecast. Weather courtesy of forecast.io.

METAR (pilot weather report)

Report is more than 2 hours old.

Retrieved 2019/05/20 21:00 UTC (3 hours ago):

HTTB 202100Z 00000KT 9999 FEW017 20/17 Q1018

TAF (pilot weather forecast)

Forecast is more than 12 hours old.

Retrieved 2019/05/16 12:00 UTC (4 days ago):

TAF HTTB 161100Z 1612/1712 00000KT 9999 FEW024